Time;durP1;ratioP1;P1;durP2;ratioP2;P2;SDS_P1;SDS_P2;PMS_P1;PMS_P2;Temp;Humidity;BMP_temperature;BMP_pressure;BME280_temperature;BME280_humidity;BME280_pressure;Samples;Min_cycle;Max_cycle;Signal;HPM_P1;HPM_P2
2022/11/18 00:00:33;;;;;;;2.85;0.80;;;8.10;99.90;;;;;;5026496;28;20496;-78
2022/11/18 00:02:59;;;;;;;2.60;1.00;;;8.10;99.90;;;;;;5048882;28;20044;-78
2022/11/18 00:05:25;;;;;;;4.90;1.20;;;8.10;99.90;;;;;;5028906;28;20072;-78
2022/11/18 00:07:51;;;;;;;2.70;1.20;;;8.10;99.90;;;;;;5048310;28;20044;-79
2022/11/18 00:10:18;;;;;;;3.45;0.98;;;8.10;99.90;;;;;;5041274;28;20033;-79
2022/11/18 00:19:38;;;;;;;4.63;0.98;;;8.20;99.90;;;;;;5046364;28;20040;-79
2022/11/18 00:22:06;;;;;;;2.25;0.80;;;8.20;99.90;;;;;;5045362;28;20033;-79
2022/11/18 00:24:33;;;;;;;2.97;0.77;;;8.20;99.90;;;;;;5046720;28;20541;-79
2022/11/18 00:26:59;;;;;;;4.95;0.90;;;8.20;99.90;;;;;;5045897;28;20393;-78
2022/11/18 00:29:27;;;;;;;3.35;0.75;;;8.20;99.90;;;;;;5040724;28;20044;-78
2022/11/18 00:31:57;;;;;;;2.65;1.10;;;8.10;99.90;;;;;;5014298;28;20037;-78
2022/11/18 00:34:24;;;;;;;3.20;1.10;;;8.10;99.90;;;;;;5028520;28;20040;-78
2022/11/18 00:36:50;;;;;;;3.83;1.20;;;8.00;99.90;;;;;;5015032;28;20410;-79
2022/11/18 00:39:18;;;;;;;2.95;0.77;;;8.00;99.90;;;;;;5009680;28;20032;-77
2022/11/18 00:44:30;;;;;;;5.88;1.20;;;7.90;99.90;;;;;;5028779;28;20502;-78
2022/11/18 00:46:57;;;;;;;2.75;0.80;;;7.80;99.90;;;;;;5031853;28;20020;-78
2022/11/18 00:49:23;;;;;;;1.83;0.75;;;7.80;99.90;;;;;;5010271;28;20052;-78
2022/11/18 00:51:50;;;;;;;5.53;1.00;;;7.80;99.90;;;;;;5046468;28;20032;-79
2022/11/18 00:54:16;;;;;;;3.38;1.05;;;7.80;99.90;;;;;;5013223;28;20041;-77
2022/11/18 00:56:43;;;;;;;3.13;0.75;;;7.80;99.90;;;;;;5028017;28;20045;-78
2022/11/18 00:59:09;;;;;;;3.97;0.93;;;7.80;99.90;;;;;;5043374;28;20040;-77
2022/11/18 01:01:35;;;;;;;3.83;1.30;;;7.80;99.90;;;;;;5013485;28;20049;-77
2022/11/18 01:04:02;;;;;;;2.25;0.90;;;7.90;99.90;;;;;;5031236;28;20059;-77
2022/11/18 01:06:29;;;;;;;1.67;1.02;;;7.90;99.90;;;;;;5029729;28;20033;-79
2022/11/18 01:08:55;;;;;;;4.22;0.93;;;8.00;99.90;;;;;;5030520;28;20488;-77
2022/11/18 01:14:07;;;;;;;6.72;1.27;;;7.90;99.90;;;;;;5048117;28;20028;-78
2022/11/18 01:16:33;;;;;;;5.32;1.20;;;7.90;99.90;;;;;;5031412;28;20032;-78
2022/11/18 01:19:00;;;;;;;3.65;1.00;;;7.90;99.90;;;;;;5028591;28;20060;-78
2022/11/18 01:21:28;;;;;;;2.33;0.90;;;7.80;99.90;;;;;;5043833;28;20404;-79
2022/11/18 01:23:54;;;;;;;3.58;1.08;;;7.80;99.90;;;;;;5049508;28;20033;-78
2022/11/18 01:26:20;;;;;;;3.10;1.00;;;7.80;99.90;;;;;;5049494;28;20032;-79
2022/11/18 01:28:47;;;;;;;3.83;1.65;;;7.80;99.90;;;;;;5031128;28;20551;-78
2022/11/18 01:31:15;;;;;;;8.18;2.28;;;7.80;99.90;;;;;;5031072;28;20037;-79
2022/11/18 01:33:42;;;;;;;6.72;1.58;;;7.90;99.90;;;;;;5032867;28;20432;-79
2022/11/18 01:36:17;;;;;;;3.33;1.10;;;7.90;99.90;;;;;;5051352;28;20436;-79
2022/11/18 01:38:43;;;;;;;4.10;1.30;;;7.90;99.90;;;;;;5030536;28;20041;-78
2022/11/18 01:41:10;;;;;;;4.15;1.10;;;8.00;99.90;;;;;;5047528;28;20025;-79
2022/11/18 01:44:10;;;;;;;1.90;1.10;;;8.00;99.90;;;;;;5052455;28;20037;-78
2022/11/18 01:46:36;;;;;;;3.78;1.20;;;8.00;99.90;;;;;;5049792;28;20037;-79
2022/11/18 01:49:07;;;;;;;2.97;1.23;;;8.00;99.90;;;;;;5016672;28;20055;-79
2022/11/18 01:51:43;;;;;;;4.18;1.35;;;8.00;99.90;;;;;;5048726;28;20033;-78
2022/11/18 01:54:24;;;;;;;2.80;1.42;;;8.00;99.90;;;;;;5032528;28;20034;-80
2022/11/18 01:56:54;;;;;;;5.40;1.70;;;8.00;99.90;;;;;;5032699;28;20598;-79
2022/11/18 01:59:28;;;;;;;4.32;1.27;;;8.00;99.90;;;;;;5029634;28;20063;-78
2022/11/18 02:01:55;;;;;;;3.28;1.20;;;8.00;99.90;;;;;;5052088;28;20045;-78
2022/11/18 02:04:24;;;;;;;3.22;1.23;;;8.10;99.90;;;;;;5049437;28;20052;-80
2022/11/18 02:06:50;;;;;;;2.67;1.10;;;8.00;99.90;;;;;;5050416;28;20037;-78
2022/11/18 02:09:17;;;;;;;2.72;1.58;;;8.10;99.90;;;;;;5046905;28;20036;-76
2022/11/18 02:11:49;;;;;;;4.15;1.50;;;8.10;99.90;;;;;;5052265;28;20043;-78
2022/11/18 02:14:19;;;;;;;3.13;1.20;;;8.10;99.90;;;;;;5032664;28;20037;-79
2022/11/18 02:17:29;;;;;;;2.47;1.20;;;8.10;99.90;;;;;;5049367;28;20037;-80
2022/11/18 02:20:28;;;;;;;3.47;1.00;;;8.10;99.90;;;;;;5006602;28;20061;-78
2022/11/18 02:23:31;;;;;;;6.75;1.48;;;8.20;99.90;;;;;;5014869;28;20029;-79
2022/11/18 02:26:16;;;;;;;3.28;0.98;;;8.20;99.90;;;;;;5048419;28;20033;-79
2022/11/18 02:28:57;;;;;;;3.22;1.10;;;8.30;99.90;;;;;;5031195;28;20032;-78
2022/11/18 02:31:40;;;;;;;3.05;1.27;;;8.30;99.90;;;;;;5046421;28;20037;-80
2022/11/18 02:34:19;;;;;;;2.78;1.50;;;8.30;99.90;;;;;;5050903;28;20067;-79
2022/11/18 02:36:51;;;;;;;4.88;1.38;;;8.30;99.90;;;;;;5049207;28;20033;-79
2022/11/18 02:39:33;;;;;;;4.45;1.65;;;8.20;99.90;;;;;;5028674;28;20036;-77
2022/11/18 02:42:04;;;;;;;3.80;1.70;;;8.20;99.90;;;;;;5048725;28;20472;-77
2022/11/18 02:44:31;;;;;;;4.47;1.50;;;8.20;99.90;;;;;;5049874;28;20036;-77
2022/11/18 02:47:02;;;;;;;3.78;1.13;;;8.10;99.90;;;;;;5030694;28;20037;-77
2022/11/18 02:49:39;;;;;;;3.42;1.25;;;8.10;99.90;;;;;;5013274;28;20048;-77
2022/11/18 02:52:07;;;;;;;3.45;1.38;;;8.10;99.90;;;;;;5034727;28;20032;-77
2022/11/18 02:54:36;;;;;;;3.30;1.20;;;8.10;99.90;;;;;;5046958;28;20025;-78
2022/11/18 02:57:04;;;;;;;4.10;1.35;;;8.20;99.90;;;;;;5047450;28;20041;-79
2022/11/18 02:59:30;;;;;;;4.10;1.67;;;8.20;99.90;;;;;;5045032;28;20587;-77
2022/11/18 03:01:57;;;;;;;4.03;1.65;;;8.20;99.90;;;;;;5031272;28;20622;-77
2022/11/18 03:04:25;;;;;;;4.38;1.35;;;8.20;99.90;;;;;;5017249;28;20041;-78
2022/11/18 03:07:21;;;;;;;3.25;1.23;;;8.30;99.90;;;;;;5032893;28;20040;-78
2022/11/18 03:09:50;;;;;;;5.85;1.42;;;8.30;99.90;;;;;;5026876;28;20048;-76
2022/11/18 03:12:39;;;;;;;3.35;0.98;;;8.40;99.90;;;;;;5030278;28;20044;-78
2022/11/18 03:15:17;;;;;;;2.55;0.90;;;8.40;99.90;;;;;;5028792;28;20028;-78
2022/11/18 03:17:52;;;;;;;2.13;1.30;;;8.40;99.90;;;;;;5030077;28;20053;-78
2022/11/18 03:20:38;;;;;;;2.67;1.00;;;8.40;99.90;;;;;;5011014;28;20041;-77
2022/11/18 03:23:19;;;;;;;2.45;1.25;;;8.50;99.90;;;;;;5029645;28;20036;-77
2022/11/18 03:26:08;;;;;;;4.72;2.03;;;8.50;99.90;;;;;;5046288;28;20668;-77
2022/11/18 03:28:54;;;;;;;4.57;0.90;;;8.50;99.90;;;;;;5009677;28;20496;-77
2022/11/18 03:31:29;;;;;;;3.67;1.52;;;8.50;99.90;;;;;;5044905;28;20024;-77
2022/11/18 03:34:04;;;;;;;4.07;1.40;;;8.50;99.90;;;;;;5045824;28;20051;-77
2022/11/18 03:36:36;;;;;;;3.13;1.00;;;8.50;99.90;;;;;;5028869;28;20036;-77
2022/11/18 03:39:06;;;;;;;5.63;1.58;;;8.60;99.90;;;;;;5027005;28;20048;-78
2022/11/18 03:41:38;;;;;;;3.10;1.05;;;8.60;99.90;;;;;;5029471;28;20044;-78
2022/11/18 03:44:13;;;;;;;2.80;1.00;;;8.60;99.90;;;;;;5046541;28;20063;-77
2022/11/18 03:46:46;;;;;;;3.63;1.00;;;8.60;99.90;;;;;;5030995;28;20036;-78
2022/11/18 03:49:20;;;;;;;3.22;1.10;;;8.70;99.90;;;;;;5027764;28;20033;-75
2022/11/18 03:51:52;;;;;;;2.47;1.10;;;8.70;99.90;;;;;;5031420;28;20043;-78
2022/11/18 03:54:30;;;;;;;5.68;1.40;;;8.60;99.90;;;;;;5016171;28;20457;-78
2022/11/18 03:57:29;;;;;;;2.72;1.15;;;8.70;99.90;;;;;;5033341;28;20491;-78
2022/11/18 04:00:01;;;;;;;3.30;0.93;;;8.70;99.90;;;;;;5040866;28;20048;-77
2022/11/18 04:02:29;;;;;;;2.97;1.17;;;8.70;99.90;;;;;;5031366;28;20380;-78
2022/11/18 04:04:58;;;;;;;3.70;0.90;;;8.70;99.90;;;;;;5048170;28;20380;-78
2022/11/18 04:07:32;;;;;;;3.83;1.20;;;8.70;99.90;;;;;;5031881;28;20040;-77
2022/11/18 04:10:12;;;;;;;4.10;1.25;;;8.70;99.90;;;;;;5043789;28;20047;-78
2022/11/18 04:12:44;;;;;;;6.05;1.38;;;8.70;99.90;;;;;;5028755;28;20033;-78
2022/11/18 04:15:11;;;;;;;3.45;0.95;;;8.70;99.90;;;;;;5045533;28;20411;-76
2022/11/18 04:17:40;;;;;;;2.70;1.48;;;8.70;99.90;;;;;;5044580;28;20037;-75
2022/11/18 04:20:15;;;;;;;3.28;1.58;;;8.70;99.90;;;;;;5026680;28;20181;-77
2022/11/18 04:22:41;;;;;;;2.38;0.90;;;8.70;99.90;;;;;;5046538;28;20427;-77
2022/11/18 04:25:08;;;;;;;2.92;1.10;;;8.70;99.90;;;;;;5031999;28;20065;-78
2022/11/18 04:27:34;;;;;;;2.00;1.00;;;8.70;99.90;;;;;;5027685;28;20037;-79
2022/11/18 04:30:01;;;;;;;4.72;1.23;;;8.70;99.90;;;;;;5040874;28;20396;-77
2022/11/18 04:32:28;;;;;;;4.00;1.00;;;8.70;99.90;;;;;;5046200;28;20044;-77
2022/11/18 04:34:54;;;;;;;2.78;1.08;;;8.70;99.90;;;;;;5050298;28;20036;-76
2022/11/18 04:37:20;;;;;;;3.42;1.00;;;8.70;99.90;;;;;;5029693;28;20052;-77
2022/11/18 04:39:47;;;;;;;4.18;1.20;;;8.80;99.90;;;;;;5025507;28;20037;-76
2022/11/18 04:42:13;;;;;;;3.60;1.38;;;8.80;99.90;;;;;;5044253;28;20044;-76
2022/11/18 04:44:39;;;;;;;3.78;1.25;;;8.80;99.90;;;;;;5048343;28;20048;-78
2022/11/18 04:47:06;;;;;;;3.42;1.40;;;8.80;99.90;;;;;;5014302;28;20400;-78
2022/11/18 04:49:34;;;;;;;4.53;1.15;;;8.80;99.90;;;;;;5027495;28;20056;-78
2022/11/18 04:52:00;;;;;;;4.47;1.25;;;8.80;99.90;;;;;;5046868;28;20043;-78
2022/11/18 04:54:27;;;;;;;2.55;1.30;;;8.80;99.90;;;;;;5014079;28;20033;-77
2022/11/18 04:56:54;;;;;;;3.67;1.40;;;8.80;99.90;;;;;;5046234;28;20044;-78
2022/11/18 04:59:24;;;;;;;5.32;1.13;;;8.80;99.90;;;;;;5046309;28;20373;-77
2022/11/18 05:01:52;;;;;;;6.80;2.25;;;8.80;99.90;;;;;;5049489;28;20041;-77
2022/11/18 05:04:21;;;;;;;3.50;1.27;;;8.80;99.90;;;;;;5052810;28;20484;-77
2022/11/18 05:06:47;;;;;;;4.43;1.17;;;8.80;99.90;;;;;;5034613;28;20036;-77
2022/11/18 05:09:14;;;;;;;3.10;1.52;;;8.80;99.90;;;;;;5045931;28;20945;-77
2022/11/18 05:14:27;;;;;;;3.00;1.13;;;8.80;99.90;;;;;;5050347;28;20033;-77
2022/11/18 05:16:55;;;;;;;3.03;1.40;;;8.80;99.90;;;;;;5053252;28;20037;-77
2022/11/18 05:19:22;;;;;;;5.55;1.90;;;8.80;99.90;;;;;;5046859;28;20056;-79
2022/11/18 05:21:48;;;;;;;4.18;1.83;;;8.80;99.90;;;;;;5034778;28;20033;-77
2022/11/18 05:24:15;;;;;;;4.60;1.35;;;8.80;99.90;;;;;;5047277;28;20037;-77
2022/11/18 05:26:42;;;;;;;5.57;1.40;;;8.80;99.90;;;;;;5034120;28;20029;-79
2022/11/18 05:29:09;;;;;;;2.33;1.27;;;8.80;99.90;;;;;;5031828;28;20056;-76
2022/11/18 05:31:35;;;;;;;4.32;1.23;;;8.80;99.90;;;;;;5017641;28;20029;-79
2022/11/18 05:34:02;;;;;;;4.82;1.85;;;8.80;99.90;;;;;;5020251;28;20041;-79
2022/11/18 05:36:28;;;;;;;5.15;1.50;;;8.70;99.90;;;;;;5055207;28;20099;-79
2022/11/18 05:38:57;;;;;;;6.38;1.20;;;8.70;99.90;;;;;;5034284;28;20044;-79
2022/11/18 05:44:09;;;;;;;6.97;1.10;;;8.70;99.90;;;;;;5050699;28;20503;-79
2022/11/18 05:46:35;;;;;;;3.20;1.58;;;8.70;99.90;;;;;;5050596;28;20029;-80
2022/11/18 05:49:01;;;;;;;4.75;1.20;;;8.60;99.90;;;;;;5014888;28;20049;-77
2022/11/18 05:51:27;;;;;;;4.65;1.98;;;8.60;99.90;;;;;;5030019;28;20033;-80
2022/11/18 05:53:55;;;;;;;2.92;1.23;;;8.70;99.90;;;;;;5032336;28;20484;-78
2022/11/18 05:56:27;;;;;;;3.08;1.80;;;8.70;99.90;;;;;;5050526;28;20044;-77
2022/11/18 05:58:53;;;;;;;2.83;1.13;;;8.70;99.90;;;;;;5030970;28;20503;-77
2022/11/18 06:01:52;;;;;;;3.55;1.08;;;8.80;99.90;;;;;;5048661;28;20044;-77
2022/11/18 06:04:27;;;;;;;3.60;1.25;;;8.70;99.90;;;;;;5026598;28;20045;-79
2022/11/18 06:07:01;;;;;;;3.72;1.50;;;8.80;99.90;;;;;;5030801;28;20053;-78
2022/11/18 06:09:32;;;;;;;2.97;1.30;;;8.80;99.90;;;;;;5042947;28;20424;-77
2022/11/18 06:12:01;;;;;;;2.75;1.25;;;8.80;99.90;;;;;;5013870;28;20045;-78
2022/11/18 06:14:41;;;;;;;4.63;1.17;;;8.80;99.90;;;;;;5049219;28;20055;-76
2022/11/18 06:17:17;;;;;;;4.28;1.90;;;8.70;99.90;;;;;;5030181;28;20045;-77
2022/11/18 06:19:44;;;;;;;7.15;1.92;;;8.70;99.90;;;;;;5029102;28;20484;-78
2022/11/18 06:22:11;;;;;;;5.20;1.73;;;8.70;99.90;;;;;;5047221;28;20029;-78
2022/11/18 06:24:38;;;;;;;4.40;1.83;;;8.60;99.90;;;;;;5031220;28;20424;-78
2022/11/18 06:27:04;;;;;;;4.97;1.70;;;8.60;99.90;;;;;;5047914;28;20626;-77
2022/11/18 06:29:31;;;;;;;5.38;1.63;;;8.60;99.90;;;;;;5011783;28;20033;-79
2022/11/18 06:31:57;;;;;;;2.97;1.40;;;8.60;99.90;;;;;;5049073;28;20041;-78
2022/11/18 06:34:23;;;;;;;2.55;1.65;;;8.50;99.90;;;;;;5048083;28;20040;-79
2022/11/18 06:36:50;;;;;;;5.50;1.63;;;8.50;99.90;;;;;;5016724;28;20048;-77
2022/11/18 06:39:16;;;;;;;2.83;1.67;;;8.50;99.90;;;;;;5027475;28;20091;-77
2022/11/18 06:41:42;;;;;;;3.58;1.95;;;8.40;99.90;;;;;;5046476;28;20037;-77
2022/11/18 06:44:11;;;;;;;3.90;1.40;;;8.40;99.90;;;;;;5047576;28;20476;-77
2022/11/18 06:46:56;;;;;;;5.07;1.98;;;8.40;99.90;;;;;;5049201;28;20045;-77
2022/11/18 06:49:24;;;;;;;4.40;1.60;;;8.40;99.90;;;;;;5027960;28;20043;-78
2022/11/18 06:51:50;;;;;;;2.88;1.65;;;8.30;99.90;;;;;;5050587;28;20066;-77
2022/11/18 06:54:16;;;;;;;5.03;1.65;;;8.30;99.90;;;;;;5016989;28;20033;-78
2022/11/18 06:56:43;;;;;;;4.60;1.33;;;8.30;99.90;;;;;;5046601;28;20029;-78
2022/11/18 06:59:09;;;;;;;4.28;1.67;;;8.30;99.90;;;;;;5027299;28;20024;-78
2022/11/18 07:01:37;;;;;;;3.58;2.00;;;8.20;99.90;;;;;;5042328;28;20057;-74
2022/11/18 07:04:04;;;;;;;4.63;2.03;;;8.20;99.90;;;;;;5043165;28;20036;-78
2022/11/18 07:06:32;;;;;;;4.65;2.33;;;8.20;99.90;;;;;;5041807;28;20041;-75
2022/11/18 07:09:00;;;;;;;5.45;2.13;;;8.20;99.90;;;;;;5042121;28;20024;-77
2022/11/18 07:11:27;;;;;;;7.00;2.35;;;8.10;99.90;;;;;;5037262;28;20052;-79
2022/11/18 07:13:53;;;;;;;6.28;2.55;;;8.10;99.90;;;;;;5010987;28;20480;-79
2022/11/18 07:16:24;;;;;;;3.88;2.20;;;8.00;99.90;;;;;;5024617;28;20042;-79
2022/11/18 07:18:52;;;;;;;6.40;2.40;;;8.00;99.90;;;;;;5023972;28;20716;-78
2022/11/18 07:21:21;;;;;;;4.10;2.20;;;8.00;99.90;;;;;;5020923;28;20480;-78
2022/11/18 07:23:47;;;;;;;5.40;2.47;;;8.00;99.90;;;;;;5042012;28;20076;-78
2022/11/18 07:26:15;;;;;;;5.50;2.13;;;8.00;99.90;;;;;;5040503;28;20029;-78
2022/11/18 07:28:41;;;;;;;3.60;1.92;;;8.00;99.90;;;;;;5026140;28;20041;-78
2022/11/18 07:31:16;;;;;;;5.00;1.98;;;8.10;99.90;;;;;;5035477;28;20033;-78
2022/11/18 07:33:43;;;;;;;7.88;2.35;;;8.10;99.90;;;;;;5026258;28;20040;-77
2022/11/18 07:36:12;;;;;;;3.80;2.30;;;8.20;99.90;;;;;;5026297;28;20048;-78
2022/11/18 07:38:40;;;;;;;5.78;2.60;;;8.30;99.90;;;;;;5020459;28;20045;-80
2022/11/18 07:41:37;;;;;;;5.38;2.45;;;8.40;99.90;;;;;;5023479;28;20447;-77
2022/11/18 07:44:04;;;;;;;5.63;2.90;;;8.50;99.90;;;;;;5026508;28;20049;-77
2022/11/18 07:46:31;;;;;;;4.50;2.22;;;8.50;99.90;;;;;;5015182;28;20064;-75
2022/11/18 07:49:00;;;;;;;5.85;3.05;;;8.60;99.90;;;;;;5047479;28;20032;-75
2022/11/18 07:51:29;;;;;;;5.07;3.60;;;8.60;99.90;;;;;;5023763;28;20546;-75
2022/11/18 07:53:55;;;;;;;7.55;2.80;;;8.70;99.90;;;;;;5045307;28;20036;-76
2022/11/18 07:56:22;;;;;;;3.83;2.00;;;8.70;99.90;;;;;;5046136;28;20037;-76
2022/11/18 07:58:53;;;;;;;7.03;3.00;;;8.60;99.90;;;;;;5042805;28;21269;-76
2022/11/18 08:01:22;;;;;;;3.90;2.50;;;8.60;99.90;;;;;;5041185;28;20036;-77
2022/11/18 08:03:49;;;;;;;5.65;2.85;;;8.60;99.90;;;;;;5044073;28;20044;-78
2022/11/18 08:06:17;;;;;;;7.75;3.60;;;8.60;99.90;;;;;;5044422;28;20036;-76
2022/11/18 08:08:44;;;;;;;11.32;6.00;;;8.60;99.90;;;;;;5026446;28;20041;-76
2022/11/18 08:11:13;;;;;;;9.05;4.30;;;8.60;99.90;;;;;;5040598;28;20468;-80
2022/11/18 08:13:39;;;;;;;6.07;3.53;;;8.60;99.90;;;;;;5032395;28;20044;-78
2022/11/18 08:16:13;;;;;;;4.93;3.72;;;8.60;99.90;;;;;;5046198;28;20029;-76
2022/11/18 08:18:40;;;;;;;10.30;6.93;;;8.60;99.90;;;;;;5027019;28;20045;-76
2022/11/18 08:21:06;;;;;;;10.55;4.43;;;8.70;99.90;;;;;;5040716;28;20037;-77
2022/11/18 08:23:32;;;;;;;6.53;4.35;;;8.70;99.90;;;;;;5047020;28;20028;-76
2022/11/18 08:26:04;;;;;;;5.43;3.75;;;8.70;99.90;;;;;;5045727;28;20036;-76
2022/11/18 08:28:31;;;;;;;8.13;4.33;;;8.70;99.90;;;;;;5009755;28;20385;-76
2022/11/18 08:30:58;;;;;;;7.78;3.70;;;8.70;99.90;;;;;;5023527;28;20047;-76
2022/11/18 08:33:24;;;;;;;6.20;3.90;;;8.70;99.90;;;;;;5029659;28;20035;-76
2022/11/18 08:35:51;;;;;;;7.97;2.83;;;8.70;99.90;;;;;;5031283;28;20048;-75
2022/11/18 08:38:17;;;;;;;5.82;3.05;;;8.80;99.90;;;;;;5047207;28;20036;-77
2022/11/18 08:40:46;;;;;;;6.53;3.95;;;8.70;99.90;;;;;;5042501;28;20037;-77
2022/11/18 08:43:13;;;;;;;9.02;3.70;;;8.80;99.90;;;;;;5048555;28;20036;-75
2022/11/18 08:45:39;;;;;;;5.90;3.70;;;8.80;99.90;;;;;;5013964;28;20025;-76
2022/11/18 08:48:06;;;;;;;8.05;3.55;;;8.90;99.90;;;;;;5046539;28;20063;-76
2022/11/18 08:50:32;;;;;;;5.35;3.42;;;8.90;99.90;;;;;;5042381;28;20025;-76
2022/11/18 08:52:58;;;;;;;6.78;3.28;;;9.00;99.90;;;;;;5047082;28;20044;-76
2022/11/18 08:55:24;;;;;;;5.20;2.72;;;9.10;99.90;;;;;;5049750;28;20048;-76
2022/11/18 08:57:51;;;;;;;5.78;3.08;;;9.10;99.90;;;;;;5045361;28;20036;-75
2022/11/18 09:00:17;;;;;;;6.32;3.20;;;9.20;99.90;;;;;;5023790;28;20060;-76
2022/11/18 09:02:44;;;;;;;6.28;2.80;;;9.20;99.90;;;;;;5029011;28;20030;-75
2022/11/18 09:05:10;;;;;;;6.90;3.60;;;9.30;99.90;;;;;;5045988;28;20059;-75
2022/11/18 09:07:36;;;;;;;8.45;4.05;;;9.40;99.90;;;;;;5046652;28;20037;-75
2022/11/18 09:10:03;;;;;;;7.78;3.83;;;9.40;99.90;;;;;;5038546;28;20041;-75
2022/11/18 09:12:29;;;;;;;5.80;3.40;;;9.50;99.90;;;;;;5046827;28;20345;-75
2022/11/18 09:14:55;;;;;;;6.30;3.92;;;9.60;99.90;;;;;;5043306;28;20033;-75
2022/11/18 09:17:22;;;;;;;7.00;3.03;;;9.60;99.90;;;;;;5044578;28;20395;-76
2022/11/18 09:19:48;;;;;;;6.85;2.85;;;9.60;99.90;;;;;;5020234;28;20037;-75
2022/11/18 09:22:14;;;;;;;6.03;3.15;;;9.50;99.90;;;;;;5006480;28;20028;-75
2022/11/18 09:24:42;;;;;;;6.28;2.80;;;9.60;99.90;;;;;;5044064;28;20045;-75
2022/11/18 09:27:08;;;;;;;6.30;3.78;;;9.60;99.90;;;;;;5027012;28;20067;-74
2022/11/18 09:29:34;;;;;;;6.15;3.95;;;9.50;99.90;;;;;;5038089;28;20033;-75
2022/11/18 09:32:01;;;;;;;8.85;3.70;;;9.60;99.90;;;;;;5026667;28;20099;-76
2022/11/18 09:34:28;;;;;;;9.23;3.47;;;9.70;99.90;;;;;;5044777;28;20021;-76
2022/11/18 09:36:55;;;;;;;5.65;3.35;;;9.70;99.90;;;;;;5024692;28;20040;-76
2022/11/18 09:39:23;;;;;;;5.55;2.95;;;9.90;99.90;;;;;;5008436;28;20037;-76
2022/11/18 09:42:25;;;;;;;4.30;2.33;;;10.00;99.90;;;;;;5044156;28;20048;-76
2022/11/18 09:45:14;;;;;;;4.13;2.08;;;10.20;99.90;;;;;;5050334;28;20036;-76
2022/11/18 09:47:41;;;;;;;12.20;8.70;;;10.30;99.90;;;;;;5054130;28;20055;-76
2022/11/18 09:50:19;;;;;;;11.80;8.57;;;10.50;99.90;;;;;;5022920;28;20045;-77
2022/11/18 09:53:23;;;;;;;8.63;5.07;;;10.50;99.90;;;;;;5016390;28;20132;-76
2022/11/18 09:55:51;;;;;;;6.80;3.95;;;10.50;99.90;;;;;;5019830;28;20051;-76
2022/11/18 09:58:24;;;;;;;7.88;3.65;;;10.50;99.90;;;;;;5045667;28;20496;-75
2022/11/18 10:00:51;;;;;;;4.85;2.42;;;10.50;99.90;;;;;;5042295;28;20049;-76
2022/11/18 10:03:28;;;;;;;5.20;2.47;;;10.50;99.90;;;;;;5027346;28;20029;-76
2022/11/18 10:06:17;;;;;;;5.15;2.92;;;10.50;99.90;;;;;;5012330;28;20484;-76
2022/11/18 10:09:09;;;;;;;7.53;3.03;;;10.50;99.90;;;;;;5011711;28;20557;-78
2022/11/18 10:11:57;;;;;;;3.13;2.22;;;10.40;99.90;;;;;;5045825;28;20036;-75
2022/11/18 10:14:38;;;;;;;6.15;2.85;;;10.40;99.90;;;;;;5029660;28;20047;-76
2022/11/18 10:17:27;;;;;;;6.53;3.38;;;10.30;99.90;;;;;;5010879;28;20044;-74
2022/11/18 10:20:28;;;;;;;11.10;6.88;;;10.30;99.90;;;;;;5044257;28;20033;-77
2022/11/18 10:23:13;;;;;;;6.85;3.88;;;10.20;99.90;;;;;;5047922;28;20029;-76
2022/11/18 10:25:39;;;;;;;5.95;3.90;;;10.30;99.90;;;;;;5048276;28;20100;-76
2022/11/18 10:28:21;;;;;;;5.15;3.03;;;10.20;99.90;;;;;;5040745;28;20029;-75
2022/11/18 10:30:47;;;;;;;6.70;2.95;;;10.20;99.90;;;;;;5041859;28;20032;-76
2022/11/18 10:33:27;;;;;;;5.43;2.78;;;10.20;99.90;;;;;;5043881;28;20432;-75
2022/11/18 10:36:33;;;;;;;3.33;2.90;;;10.20;99.90;;;;;;5025217;28;21415;-75
2022/11/18 10:39:23;;;;;;;5.78;2.33;;;10.10;99.90;;;;;;5041439;28;20412;-75
2022/11/18 10:41:53;;;;;;;4.47;2.53;;;10.10;99.90;;;;;;5043512;28;20033;-75
2022/11/18 10:44:35;;;;;;;6.18;3.78;;;10.00;99.90;;;;;;5032323;28;20060;-78
2022/11/18 10:47:22;;;;;;;4.15;2.72;;;9.90;99.90;;;;;;5046519;28;20029;-77
2022/11/18 10:49:50;;;;;;;4.07;2.03;;;9.80;99.90;;;;;;5025021;28;20488;-77
2022/11/18 10:52:16;;;;;;;6.68;3.40;;;9.80;99.90;;;;;;5047369;28;20029;-76
2022/11/18 10:54:43;;;;;;;4.43;2.83;;;9.70;99.90;;;;;;5051830;28;20049;-75
2022/11/18 10:57:19;;;;;;;5.40;3.53;;;9.70;99.90;;;;;;5016507;28;20121;-76
2022/11/18 10:59:51;;;;;;;8.70;5.03;;;9.70;99.90;;;;;;5007710;28;20052;-75
2022/11/18 11:02:29;;;;;;;5.47;3.33;;;9.70;99.90;;;;;;5031870;28;20041;-76
2022/11/18 11:04:58;;;;;;;5.78;3.13;;;9.70;99.90;;;;;;5047703;28;20044;-75
2022/11/18 11:07:35;;;;;;;6.15;3.17;;;9.60;99.90;;;;;;5032970;28;20380;-76
2022/11/18 11:10:04;;;;;;;4.15;2.17;;;9.70;99.90;;;;;;5043227;28;20036;-75
2022/11/18 11:12:36;;;;;;;5.18;2.40;;;9.70;99.90;;;;;;5046786;28;20032;-76
2022/11/18 11:15:09;;;;;;;7.60;3.45;;;9.70;99.90;;;;;;5048900;28;20035;-75
2022/11/18 11:17:46;;;;;;;7.65;3.90;;;9.70;99.90;;;;;;5048004;28;20036;-75
2022/11/18 11:20:18;;;;;;;4.68;2.80;;;9.70;99.90;;;;;;5042049;28;20035;-78
2022/11/18 11:22:45;;;;;;;13.45;9.00;;;9.70;99.90;;;;;;5047303;28;20028;-78
2022/11/18 11:25:16;;;;;;;8.68;5.82;;;9.70;99.90;;;;;;5015989;28;20041;-78
2022/11/18 11:27:58;;;;;;;8.05;5.28;;;9.80;99.90;;;;;;5048348;28;20040;-77
2022/11/18 11:30:24;;;;;;;7.45;4.80;;;9.80;99.90;;;;;;5025039;28;20404;-78
2022/11/18 11:33:04;;;;;;;7.53;4.20;;;9.90;99.90;;;;;;5030423;28;20032;-79
2022/11/18 11:35:43;;;;;;;7.07;3.75;;;10.00;99.90;;;;;;5048467;28;20059;-75
2022/11/18 11:38:30;;;;;;;5.22;3.53;;;10.00;99.90;;;;;;5046555;28;20049;-75
2022/11/18 11:41:15;;;;;;;8.90;4.32;;;10.10;99.90;;;;;;5008698;28;20029;-78
2022/11/18 11:43:58;;;;;;;7.00;4.57;;;10.20;99.90;;;;;;5028213;28;20704;-77
2022/11/18 11:47:45;;;;;;;8.35;4.70;;;10.20;99.90;;;;;;5027068;28;20515;-77
2022/11/18 11:49:51;;;;;;;12.85;7.72;;;10.30;99.90;;;;;;5023402;28;20045;-75
2022/11/18 11:52:26;;;;;;;12.05;6.30;;;10.30;99.90;;;;;;5026367;28;20047;-76
2022/11/18 11:55:16;;;;;;;16.70;8.70;;;10.40;99.90;;;;;;5012316;28;20048;-76
2022/11/18 11:58:18;;;;;;;12.00;7.15;;;10.40;99.90;;;;;;5031296;28;20716;-75
2022/11/18 12:00:54;;;;;;;10.90;5.22;;;10.50;99.90;;;;;;5029317;28;20049;-75
2022/11/18 12:03:56;;;;;;;7.60;4.35;;;10.50;99.90;;;;;;5027116;28;20029;-76
2022/11/18 12:06:22;;;;;;;7.05;4.95;;;10.50;99.90;;;;;;5035674;28;20049;-75
2022/11/18 12:09:16;;;;;;;9.40;4.63;;;10.40;99.90;;;;;;5011802;28;20051;-76
2022/11/18 12:12:00;;;;;;;8.38;4.15;;;10.40;99.90;;;;;;5038118;28;20040;-78
2022/11/18 12:14:33;;;;;;;6.72;3.97;;;10.30;99.90;;;;;;5025479;28;20400;-79
2022/11/18 12:17:05;;;;;;;8.18;4.10;;;10.40;99.90;;;;;;5038571;28;20052;-78
2022/11/18 12:19:37;;;;;;;7.68;3.78;;;10.40;99.90;;;;;;5039515;28;20221;-78
2022/11/18 12:22:05;;;;;;;6.38;3.53;;;10.40;99.90;;;;;;5042960;28;20032;-78
2022/11/18 12:24:37;;;;;;;8.73;3.78;;;10.50;99.90;;;;;;5010969;28;20052;-78
2022/11/18 12:27:13;;;;;;;6.50;4.47;;;10.60;99.90;;;;;;5027149;28;20140;-78
2022/11/18 12:29:49;;;;;;;7.88;4.00;;;10.60;99.90;;;;;;5038697;28;20080;-78
2022/11/18 12:32:41;;;;;;;5.85;3.55;;;10.60;99.90;;;;;;5023413;28;20039;-78
2022/11/18 12:35:26;;;;;;;7.97;3.45;;;10.60;99.90;;;;;;5046211;28;20033;-77
2022/11/18 12:37:53;;;;;;;8.45;3.58;;;10.60;99.90;;;;;;5010947;28;20411;-76
2022/11/18 12:40:34;;;;;;;6.47;4.15;;;10.70;99.90;;;;;;5025917;28;20025;-78
2022/11/18 12:45:50;;;;;;;5.97;3.75;;;11.00;99.90;;;;;;5045710;28;20033;-77
2022/11/18 12:48:23;;;;;;;7.68;4.28;;;11.20;99.90;;;;;;5045987;28;20582;-77
2022/11/18 12:50:52;;;;;;;6.53;4.30;;;11.40;99.90;;;;;;5023689;28;20484;-79
2022/11/18 12:53:34;;;;;;;7.78;3.30;;;11.50;99.90;;;;;;5012429;28;20036;-76
2022/11/18 12:56:10;;;;;;;8.18;3.80;;;11.70;99.90;;;;;;5045079;28;20040;-77
2022/11/18 12:58:37;;;;;;;5.03;2.80;;;11.70;99.90;;;;;;5044791;28;20044;-77
2022/11/18 13:01:10;;;;;;;4.45;3.58;;;11.70;99.90;;;;;;5022744;28;20056;-77
2022/11/18 13:03:36;;;;;;;5.78;3.20;;;11.60;99.90;;;;;;5024007;28;20515;-78
2022/11/18 13:06:12;;;;;;;5.85;3.10;;;11.60;99.90;;;;;;5030104;28;20060;-79
2022/11/18 13:08:40;;;;;;;6.28;2.90;;;11.50;99.90;;;;;;5027774;28;20044;-77
2022/11/18 13:11:49;;;;;;;8.18;2.78;;;11.50;99.90;;;;;;5042281;28;20032;-78
2022/11/18 13:19:55;;;;;;;6.70;3.33;;;11.30;99.90;;;;;;5045768;28;20044;-77
2022/11/18 13:25:25;;;;;;;5.53;3.15;;;11.20;99.90;;;;;;5051387;28;20020;-76
2022/11/18 13:28:03;;;;;;;7.22;1.98;;;11.10;99.90;;;;;;5031151;28;20037;-75
2022/11/18 13:30:32;;;;;;;5.30;3.40;;;11.10;99.90;;;;;;5025883;28;20044;-77
2022/11/18 13:32:59;;;;;;;5.03;2.88;;;11.10;99.90;;;;;;5048551;28;20055;-75
2022/11/18 13:35:28;;;;;;;5.57;3.38;;;11.10;99.90;;;;;;5032893;28;20028;-75
2022/11/18 13:38:00;;;;;;;6.20;3.50;;;11.10;99.90;;;;;;5027976;28;20065;-75
2022/11/18 13:40:29;;;;;;;5.95;3.70;;;11.10;99.90;;;;;;5022604;28;20506;-76
2022/11/18 13:42:56;;;;;;;4.65;3.10;;;11.10;99.90;;;;;;5044778;28;20116;-76
2022/11/18 13:45:28;;;;;;;4.30;2.80;;;11.10;99.90;;;;;;5040807;28;20037;-75
2022/11/18 13:48:08;;;;;;;8.98;4.28;;;11.10;99.90;;;;;;5044778;28;20423;-75
2022/11/18 13:50:39;;;;;;;11.07;3.67;;;11.10;99.90;;;;;;5039522;28;20037;-79